sensor_id;sensor_type;location;lat;lon;timestamp;temperature;humidity
76785;SHT30;66893;44.316;0.092;2023-04-03T00:01:03;18.52;48.51
76785;SHT30;66893;44.316;0.092;2023-04-03T00:03:29;18.51;48.59
76785;SHT30;66893;44.316;0.092;2023-04-03T00:05:55;18.48;48.55
76785;SHT30;66893;44.316;0.092;2023-04-03T00:08:21;18.48;48.56
76785;SHT30;66893;44.316;0.092;2023-04-03T00:10:47;18.48;48.60
76785;SHT30;66893;44.316;0.092;2023-04-03T00:13:12;18.47;48.56
76785;SHT30;66893;44.316;0.092;2023-04-03T00:15:39;18.44;48.59
76785;SHT30;66893;44.316;0.092;2023-04-03T00:18:05;18.47;48.60
76785;SHT30;66893;44.316;0.092;2023-04-03T00:20:31;18.45;48.69
76785;SHT30;66893;44.316;0.092;2023-04-03T00:22:57;18.45;48.65
76785;SHT30;66893;44.316;0.092;2023-04-03T00:25:23;18.45;48.67
76785;SHT30;66893;44.316;0.092;2023-04-03T00:27:48;18.45;48.67
76785;SHT30;66893;44.316;0.092;2023-04-03T00:30:16;18.44;48.71
76785;SHT30;66893;44.316;0.092;2023-04-03T00:32:42;18.41;48.72
76785;SHT30;66893;44.316;0.092;2023-04-03T00:35:08;18.43;48.80
76785;SHT30;66893;44.316;0.092;2023-04-03T00:37:33;18.40;48.81
76785;SHT30;66893;44.316;0.092;2023-04-03T00:39:59;18.40;48.82
76785;SHT30;66893;44.316;0.092;2023-04-03T00:42:25;18.40;48.77
76785;SHT30;66893;44.316;0.092;2023-04-03T00:47:22;18.38;48.82
76785;SHT30;66893;44.316;0.092;2023-04-03T00:49:49;18.34;48.85
76785;SHT30;66893;44.316;0.092;2023-04-03T00:52:17;18.38;48.86
76785;SHT30;66893;44.316;0.092;2023-04-03T00:54:46;18.37;48.85
76785;SHT30;66893;44.316;0.092;2023-04-03T00:57:14;18.38;48.89
76785;SHT30;66893;44.316;0.092;2023-04-03T00:59:46;18.34;48.95
76785;SHT30;66893;44.316;0.092;2023-04-03T01:02:13;18.37;48.92
76785;SHT30;66893;44.316;0.092;2023-04-03T01:04:41;18.34;48.96
76785;SHT30;66893;44.316;0.092;2023-04-03T01:09:43;18.31;48.98
76785;SHT30;66893;44.316;0.092;2023-04-03T01:12:32;18.31;48.95
76785;SHT30;66893;44.316;0.092;2023-04-03T01:15:05;18.29;48.98
76785;SHT30;66893;44.316;0.092;2023-04-03T01:28:02;18.29;49.16
76785;SHT30;66893;44.316;0.092;2023-04-03T01:30:32;18.27;49.07
76785;SHT30;66893;44.316;0.092;2023-04-03T01:32:58;18.27;49.12
76785;SHT30;66893;44.316;0.092;2023-04-03T01:35:23;18.26;49.16
76785;SHT30;66893;44.316;0.092;2023-04-03T01:37:49;18.27;49.13
76785;SHT30;66893;44.316;0.092;2023-04-03T01:40:14;18.26;49.14
76785;SHT30;66893;44.316;0.092;2023-04-03T01:42:40;18.26;49.16
76785;SHT30;66893;44.316;0.092;2023-04-03T01:45:06;18.24;49.23
76785;SHT30;66893;44.316;0.092;2023-04-03T01:47:31;18.24;49.22
76785;SHT30;66893;44.316;0.092;2023-04-03T01:49:57;18.26;49.19
76785;SHT30;66893;44.316;0.092;2023-04-03T01:52:22;18.23;49.22
76785;SHT30;66893;44.316;0.092;2023-04-03T01:54:48;18.23;49.25
76785;SHT30;66893;44.316;0.092;2023-04-03T01:57:13;18.22;49.30
76785;SHT30;66893;44.316;0.092;2023-04-03T01:59:40;18.20;49.32
76785;SHT30;66893;44.316;0.092;2023-04-03T02:02:06;18.22;49.32
76785;SHT30;66893;44.316;0.092;2023-04-03T02:04:31;18.18;49.33
76785;SHT30;66893;44.316;0.092;2023-04-03T02:06:57;18.17;49.39
76785;SHT30;66893;44.316;0.092;2023-04-03T02:09:22;18.17;49.38
76785;SHT30;66893;44.316;0.092;2023-04-03T02:11:48;18.17;49.40
76785;SHT30;66893;44.316;0.092;2023-04-03T02:14:13;18.16;49.40
76785;SHT30;66893;44.316;0.092;2023-04-03T02:16:39;18.16;49.48
76785;SHT30;66893;44.316;0.092;2023-04-03T02:19:04;18.16;49.46
76785;SHT30;66893;44.316;0.092;2023-04-03T02:21:30;18.14;49.44
76785;SHT30;66893;44.316;0.092;2023-04-03T02:23:55;18.14;49.42
76785;SHT30;66893;44.316;0.092;2023-04-03T02:26:21;18.14;49.58
76785;SHT30;66893;44.316;0.092;2023-04-03T02:28:47;18.16;49.50
76785;SHT30;66893;44.316;0.092;2023-04-03T02:31:12;18.12;49.53
76785;SHT30;66893;44.316;0.092;2023-04-03T02:33:38;18.14;49.56
76785;SHT30;66893;44.316;0.092;2023-04-03T02:36:05;18.14;49.58
76785;SHT30;66893;44.316;0.092;2023-04-03T02:38:31;18.10;49.59
76785;SHT30;66893;44.316;0.092;2023-04-03T02:41:04;18.09;49.60
76785;SHT30;66893;44.316;0.092;2023-04-03T02:43:30;18.09;49.65
76785;SHT30;66893;44.316;0.092;2023-04-03T02:45:56;18.09;49.67
76785;SHT30;66893;44.316;0.092;2023-04-03T02:48:22;18.10;49.70
76785;SHT30;66893;44.316;0.092;2023-04-03T02:50:48;18.09;49.70
76785;SHT30;66893;44.316;0.092;2023-04-03T02:53:14;18.09;49.70
76785;SHT30;66893;44.316;0.092;2023-04-03T02:55:40;18.06;49.73
76785;SHT30;66893;44.316;0.092;2023-04-03T02:58:05;18.07;49.76
76785;SHT30;66893;44.316;0.092;2023-04-03T03:00:31;18.06;49.79
76785;SHT30;66893;44.316;0.092;2023-04-03T03:02:58;18.06;49.78
76785;SHT30;66893;44.316;0.092;2023-04-03T03:05:25;18.04;49.81
76785;SHT30;66893;44.316;0.092;2023-04-03T03:07:50;18.06;49.83
76785;SHT30;66893;44.316;0.092;2023-04-03T03:10:16;18.03;49.93
76785;SHT30;66893;44.316;0.092;2023-04-03T03:12:41;18.02;49.88
76785;SHT30;66893;44.316;0.092;2023-04-03T03:15:07;18.02;49.99
76785;SHT30;66893;44.316;0.092;2023-04-03T03:17:33;18.03;49.97
76785;SHT30;66893;44.316;0.092;2023-04-03T03:19:58;18.03;49.98
76785;SHT30;66893;44.316;0.092;2023-04-03T03:22:24;18.02;50.03
76785;SHT30;66893;44.316;0.092;2023-04-03T03:24:50;17.99;50.07
76785;SHT30;66893;44.316;0.092;2023-04-03T03:27:15;18.00;49.98
76785;SHT30;66893;44.316;0.092;2023-04-03T03:29:42;18.02;50.09
76785;SHT30;66893;44.316;0.092;2023-04-03T03:32:07;17.99;50.09
76785;SHT30;66893;44.316;0.092;2023-04-03T03:34:33;18.00;50.05
76785;SHT30;66893;44.316;0.092;2023-04-03T03:36:59;18.00;50.08
76785;SHT30;66893;44.316;0.092;2023-04-03T03:39:24;18.00;50.05
76785;SHT30;66893;44.316;0.092;2023-04-03T03:41:50;18.00;50.12
76785;SHT30;66893;44.316;0.092;2023-04-03T03:44:15;17.97;50.11
76785;SHT30;66893;44.316;0.092;2023-04-03T03:46:40;17.96;50.18
76785;SHT30;66893;44.316;0.092;2023-04-03T03:49:06;17.97;50.15
76785;SHT30;66893;44.316;0.092;2023-04-03T03:51:32;17.95;50.24
76785;SHT30;66893;44.316;0.092;2023-04-03T03:53:57;17.95;50.23
76785;SHT30;66893;44.316;0.092;2023-04-03T03:56:23;17.93;50.24
76785;SHT30;66893;44.316;0.092;2023-04-03T03:58:48;17.92;50.24
76785;SHT30;66893;44.316;0.092;2023-04-03T04:01:14;17.93;50.41
76785;SHT30;66893;44.316;0.092;2023-04-03T04:03:40;17.90;50.32
76785;SHT30;66893;44.316;0.092;2023-04-03T04:06:06;17.95;50.32
76785;SHT30;66893;44.316;0.092;2023-04-03T04:08:31;17.90;50.37
76785;SHT30;66893;44.316;0.092;2023-04-03T04:10:57;17.89;50.34
76785;SHT30;66893;44.316;0.092;2023-04-03T04:13:23;17.90;50.37
76785;SHT30;66893;44.316;0.092;2023-04-03T04:15:49;17.90;50.36
76785;SHT30;66893;44.316;0.092;2023-04-03T04:18:14;17.92;50.43
76785;SHT30;66893;44.316;0.092;2023-04-03T04:20:40;17.87;50.46
76785;SHT30;66893;44.316;0.092;2023-04-03T04:23:05;17.87;50.43
76785;SHT30;66893;44.316;0.092;2023-04-03T04:25:31;17.87;50.50
76785;SHT30;66893;44.316;0.092;2023-04-03T04:27:57;17.87;50.49
76785;SHT30;66893;44.316;0.092;2023-04-03T04:30:23;17.86;50.49
76785;SHT30;66893;44.316;0.092;2023-04-03T04:32:48;17.85;50.49
76785;SHT30;66893;44.316;0.092;2023-04-03T04:35:14;17.86;50.52
76785;SHT30;66893;44.316;0.092;2023-04-03T04:37:39;17.82;50.50
76785;SHT30;66893;44.316;0.092;2023-04-03T04:40:06;17.85;50.56
76785;SHT30;66893;44.316;0.092;2023-04-03T04:42:31;17.83;50.63
76785;SHT30;66893;44.316;0.092;2023-04-03T04:44:57;17.81;50.57
76785;SHT30;66893;44.316;0.092;2023-04-03T04:47:22;17.81;50.57
76785;SHT30;66893;44.316;0.092;2023-04-03T04:49:48;17.81;50.57
76785;SHT30;66893;44.316;0.092;2023-04-03T04:52:13;17.82;50.59
76785;SHT30;66893;44.316;0.092;2023-04-03T04:54:39;17.81;50.57
76785;SHT30;66893;44.316;0.092;2023-04-03T04:57:05;17.79;50.66
76785;SHT30;66893;44.316;0.092;2023-04-03T04:59:30;17.79;50.58
76785;SHT30;66893;44.316;0.092;2023-04-03T05:01:56;17.79;50.61
76785;SHT30;66893;44.316;0.092;2023-04-03T05:04:21;17.78;50.58
76785;SHT30;66893;44.316;0.092;2023-04-03T05:06:47;17.78;50.65
76785;SHT30;66893;44.316;0.092;2023-04-03T05:09:12;17.76;50.76
76785;SHT30;66893;44.316;0.092;2023-04-03T05:11:38;17.75;50.68
76785;SHT30;66893;44.316;0.092;2023-04-03T05:14:03;17.75;50.70
76785;SHT30;66893;44.316;0.092;2023-04-03T05:16:32;17.76;50.64
76785;SHT30;66893;44.316;0.092;2023-04-03T05:18:57;17.74;50.67
76785;SHT30;66893;44.316;0.092;2023-04-03T05:21:23;17.76;50.70
76785;SHT30;66893;44.316;0.092;2023-04-03T05:23:51;17.72;50.74
76785;SHT30;66893;44.316;0.092;2023-04-03T05:26:16;17.75;50.69
76785;SHT30;66893;44.316;0.092;2023-04-03T05:28:42;17.75;50.72
76785;SHT30;66893;44.316;0.092;2023-04-03T05:31:07;17.74;50.74
76785;SHT30;66893;44.316;0.092;2023-04-03T05:33:33;17.74;50.71
76785;SHT30;66893;44.316;0.092;2023-04-03T05:36:04;17.74;50.74
76785;SHT30;66893;44.316;0.092;2023-04-03T05:38:31;17.74;50.78
76785;SHT30;66893;44.316;0.092;2023-04-03T05:40:57;17.74;50.75
76785;SHT30;66893;44.316;0.092;2023-04-03T05:43:23;17.71;50.73
76785;SHT30;66893;44.316;0.092;2023-04-03T05:45:48;17.69;50.75
76785;SHT30;66893;44.316;0.092;2023-04-03T05:48:14;17.69;50.74
76785;SHT30;66893;44.316;0.092;2023-04-03T05:50:39;17.69;50.81
76785;SHT30;66893;44.316;0.092;2023-04-03T05:53:07;17.67;50.79
76785;SHT30;66893;44.316;0.092;2023-04-03T05:55:36;17.68;50.81
76785;SHT30;66893;44.316;0.092;2023-04-03T05:58:01;17.68;50.80
76785;SHT30;66893;44.316;0.092;2023-04-03T06:00:27;17.69;50.78
76785;SHT30;66893;44.316;0.092;2023-04-03T06:02:52;17.68;50.78
76785;SHT30;66893;44.316;0.092;2023-04-03T06:05:18;17.68;50.81
76785;SHT30;66893;44.316;0.092;2023-04-03T06:07:44;17.69;50.85
76785;SHT30;66893;44.316;0.092;2023-04-03T06:10:11;17.67;50.93
76785;SHT30;66893;44.316;0.092;2023-04-03T06:12:37;17.68;50.93
76785;SHT30;66893;44.316;0.092;2023-04-03T06:15:03;17.67;50.99
76785;SHT30;66893;44.316;0.092;2023-04-03T06:17:28;17.67;50.88
76785;SHT30;66893;44.316;0.092;2023-04-03T06:19:54;17.65;50.88
76785;SHT30;66893;44.316;0.092;2023-04-03T06:22:21;17.68;50.86
76785;SHT30;66893;44.316;0.092;2023-04-03T06:24:46;17.65;50.90
76785;SHT30;66893;44.316;0.092;2023-04-03T06:27:12;17.65;50.88
76785;SHT30;66893;44.316;0.092;2023-04-03T06:29:38;17.67;50.81
76785;SHT30;66893;44.316;0.092;2023-04-03T06:32:03;17.69;50.83
76785;SHT30;66893;44.316;0.092;2023-04-03T06:34:29;17.74;50.79
76785;SHT30;66893;44.316;0.092;2023-04-03T06:36:54;17.71;50.83
76785;SHT30;66893;44.316;0.092;2023-04-03T06:39:21;17.71;50.75
76785;SHT30;66893;44.316;0.092;2023-04-03T06:41:47;17.74;50.76
76785;SHT30;66893;44.316;0.092;2023-04-03T06:44:13;17.74;50.67
76785;SHT30;66893;44.316;0.092;2023-04-03T06:46:42;17.75;50.81
76785;SHT30;66893;44.316;0.092;2023-04-03T06:49:08;17.75;50.88
76785;SHT30;66893;44.316;0.092;2023-04-03T06:51:35;17.71;50.86
76785;SHT30;66893;44.316;0.092;2023-04-03T06:54:01;17.72;50.95
76785;SHT30;66893;44.316;0.092;2023-04-03T06:56:27;17.74;50.95
76785;SHT30;66893;44.316;0.092;2023-04-03T06:58:54;17.75;50.96
76785;SHT30;66893;44.316;0.092;2023-04-03T07:01:23;17.76;50.88
76785;SHT30;66893;44.316;0.092;2023-04-03T07:03:50;17.76;50.98
76785;SHT30;66893;44.316;0.092;2023-04-03T07:06:17;17.78;51.09
76785;SHT30;66893;44.316;0.092;2023-04-03T07:08:43;17.81;50.96
76785;SHT30;66893;44.316;0.092;2023-04-03T07:11:09;17.79;50.95
76785;SHT30;66893;44.316;0.092;2023-04-03T07:13:36;17.82;50.91
76785;SHT30;66893;44.316;0.092;2023-04-03T07:16:02;17.82;50.92
76785;SHT30;66893;44.316;0.092;2023-04-03T07:18:29;17.83;50.87
76785;SHT30;66893;44.316;0.092;2023-04-03T07:20:54;17.85;50.87
76785;SHT30;66893;44.316;0.092;2023-04-03T07:23:20;17.86;50.84
76785;SHT30;66893;44.316;0.092;2023-04-03T07:25:48;17.87;50.80
76785;SHT30;66893;44.316;0.092;2023-04-03T07:28:14;17.89;50.77
76785;SHT30;66893;44.316;0.092;2023-04-03T07:30:51;17.87;50.74
76785;SHT30;66893;44.316;0.092;2023-04-03T07:33:18;17.92;50.62
76785;SHT30;66893;44.316;0.092;2023-04-03T07:35:45;17.93;50.56
76785;SHT30;66893;44.316;0.092;2023-04-03T07:38:11;17.96;50.54
76785;SHT30;66893;44.316;0.092;2023-04-03T07:40:37;17.96;50.49
76785;SHT30;66893;44.316;0.092;2023-04-03T07:43:04;17.97;50.48
76785;SHT30;66893;44.316;0.092;2023-04-03T07:45:30;17.97;50.42
76785;SHT30;66893;44.316;0.092;2023-04-03T07:47:55;18.00;50.40
76785;SHT30;66893;44.316;0.092;2023-04-03T07:50:21;18.00;50.41
76785;SHT30;66893;44.316;0.092;2023-04-03T07:52:48;18.02;50.36
76785;SHT30;66893;44.316;0.092;2023-04-03T07:55:14;18.03;50.32
76785;SHT30;66893;44.316;0.092;2023-04-03T07:57:39;18.03;50.30
76785;SHT30;66893;44.316;0.092;2023-04-03T08:00:05;18.02;50.25
76785;SHT30;66893;44.316;0.092;2023-04-03T08:02:31;18.07;50.24
76785;SHT30;66893;44.316;0.092;2023-04-03T08:04:59;18.09;50.22
76785;SHT30;66893;44.316;0.092;2023-04-03T08:07:25;18.09;50.19
76785;SHT30;66893;44.316;0.092;2023-04-03T08:09:51;18.13;50.13
76785;SHT30;66893;44.316;0.092;2023-04-03T08:12:16;18.13;50.09
76785;SHT30;66893;44.316;0.092;2023-04-03T08:14:42;18.13;50.11
76785;SHT30;66893;44.316;0.092;2023-04-03T08:17:08;18.13;50.12
76785;SHT30;66893;44.316;0.092;2023-04-03T08:19:39;18.14;50.08
76785;SHT30;66893;44.316;0.092;2023-04-03T08:22:05;18.14;50.10
76785;SHT30;66893;44.316;0.092;2023-04-03T08:24:34;18.17;50.02
76785;SHT30;66893;44.316;0.092;2023-04-03T08:27:00;18.18;49.87
76785;SHT30;66893;44.316;0.092;2023-04-03T08:29:26;18.14;49.81
76785;SHT30;66893;44.316;0.092;2023-04-03T08:31:51;18.06;49.69
76785;SHT30;66893;44.316;0.092;2023-04-03T08:34:17;17.97;49.81
76785;SHT30;66893;44.316;0.092;2023-04-03T08:36:43;17.95;49.89
76785;SHT30;66893;44.316;0.092;2023-04-03T08:39:09;17.89;49.98
76785;SHT30;66893;44.316;0.092;2023-04-03T08:41:38;17.83;50.09
76785;SHT30;66893;44.316;0.092;2023-04-03T08:44:24;17.82;50.06
76785;SHT30;66893;44.316;0.092;2023-04-03T08:49:32;17.79;50.11
76785;SHT30;66893;44.316;0.092;2023-04-03T08:52:02;17.81;49.89
76785;SHT30;66893;44.316;0.092;2023-04-03T08:54:39;17.81;49.84
76785;SHT30;66893;44.316;0.092;2023-04-03T08:57:07;17.83;49.81
76785;SHT30;66893;44.316;0.092;2023-04-03T08:59:34;17.82;49.71
76785;SHT30;66893;44.316;0.092;2023-04-03T09:02:21;17.79;49.60
76785;SHT30;66893;44.316;0.092;2023-04-03T09:04:48;17.76;49.58
76785;SHT30;66893;44.316;0.092;2023-04-03T09:07:23;17.74;49.46
76785;SHT30;66893;44.316;0.092;2023-04-03T09:09:51;17.74;49.39
76785;SHT30;66893;44.316;0.092;2023-04-03T09:12:33;17.71;49.35
76785;SHT30;66893;44.316;0.092;2023-04-03T09:20:39;17.61;49.42
76785;SHT30;66893;44.316;0.092;2023-04-03T09:26:02;17.65;49.63
76785;SHT30;66893;44.316;0.092;2023-04-03T09:28:33;17.65;49.56
76785;SHT30;66893;44.316;0.092;2023-04-03T09:31:00;17.64;49.46
76785;SHT30;66893;44.316;0.092;2023-04-03T09:33:29;17.61;49.45
76785;SHT30;66893;44.316;0.092;2023-04-03T09:35:55;17.58;49.21
76785;SHT30;66893;44.316;0.092;2023-04-03T09:38:21;17.61;49.17
76785;SHT30;66893;44.316;0.092;2023-04-03T09:40:50;17.58;49.12
76785;SHT30;66893;44.316;0.092;2023-04-03T09:43:28;17.59;48.97
76785;SHT30;66893;44.316;0.092;2023-04-03T09:45:55;17.62;48.80
76785;SHT30;66893;44.316;0.092;2023-04-03T09:48:25;17.67;48.78
76785;SHT30;66893;44.316;0.092;2023-04-03T09:50:58;17.71;48.73
76785;SHT30;66893;44.316;0.092;2023-04-03T09:55:56;17.76;48.38
76785;SHT30;66893;44.316;0.092;2023-04-03T09:58:31;17.83;48.22
76785;SHT30;66893;44.316;0.092;2023-04-03T10:01:00;17.87;48.03
76785;SHT30;66893;44.316;0.092;2023-04-03T10:03:35;17.92;47.88
76785;SHT30;66893;44.316;0.092;2023-04-03T10:06:22;17.99;47.82
76785;SHT30;66893;44.316;0.092;2023-04-03T10:09:05;18.02;47.72
76785;SHT30;66893;44.316;0.092;2023-04-03T10:11:31;18.07;47.68
76785;SHT30;66893;44.316;0.092;2023-04-03T10:13:59;18.12;47.55
76785;SHT30;66893;44.316;0.092;2023-04-03T10:25:43;18.26;47.30
76785;SHT30;66893;44.316;0.092;2023-04-03T10:28:14;18.30;47.38
76785;SHT30;66893;44.316;0.092;2023-04-03T10:34:28;18.34;47.36
76785;SHT30;66893;44.316;0.092;2023-04-03T10:36:42;18.37;47.29
76785;SHT30;66893;44.316;0.092;2023-04-03T10:39:28;18.41;47.19
76785;SHT30;66893;44.316;0.092;2023-04-03T10:42:03;18.45;47.20
76785;SHT30;66893;44.316;0.092;2023-04-03T10:44:49;18.47;47.15
76785;SHT30;66893;44.316;0.092;2023-04-03T10:52:39;18.54;46.67
76785;SHT30;66893;44.316;0.092;2023-04-03T10:57:40;18.71;46.52
76785;SHT30;66893;44.316;0.092;2023-04-03T11:00:18;18.75;46.58
76785;SHT30;66893;44.316;0.092;2023-04-03T11:05:26;18.78;46.26
76785;SHT30;66893;44.316;0.092;2023-04-03T11:07:56;18.81;46.11
76785;SHT30;66893;44.316;0.092;2023-04-03T11:10:59;18.82;46.18
76785;SHT30;66893;44.316;0.092;2023-04-03T11:16:24;18.95;45.96
76785;SHT30;66893;44.316;0.092;2023-04-03T11:19:20;19.03;45.71
76785;SHT30;66893;44.316;0.092;2023-04-03T11:22:39;19.09;45.51
76785;SHT30;66893;44.316;0.092;2023-04-03T11:24:41;19.12;45.42
76785;SHT30;66893;44.316;0.092;2023-04-03T11:27:20;19.14;45.35
76785;SHT30;66893;44.316;0.092;2023-04-03T11:29:49;19.20;45.29
76785;SHT30;66893;44.316;0.092;2023-04-03T11:35:08;19.40;45.13
76785;SHT30;66893;44.316;0.092;2023-04-03T11:37:41;19.57;45.25
76785;SHT30;66893;44.316;0.092;2023-04-03T11:42:46;19.78;44.91
76785;SHT30;66893;44.316;0.092;2023-04-03T11:45:36;19.85;44.57
76785;SHT30;66893;44.316;0.092;2023-04-03T11:50:58;19.88;44.25
76785;SHT30;66893;44.316;0.092;2023-04-03T11:55:59;19.92;44.20
76785;SHT30;66893;44.316;0.092;2023-04-03T11:58:33;19.92;44.14
76785;SHT30;66893;44.316;0.092;2023-04-03T12:01:07;19.96;44.11
76785;SHT30;66893;44.316;0.092;2023-04-03T12:13:43;20.37;43.57
76785;SHT30;66893;44.316;0.092;2023-04-03T12:16:33;20.45;43.45
76785;SHT30;66893;44.316;0.092;2023-04-03T12:19:36;20.48;43.38
76785;SHT30;66893;44.316;0.092;2023-04-03T12:24:32;20.54;43.26
76785;SHT30;66893;44.316;0.092;2023-04-03T12:35:31;20.88;42.83
76785;SHT30;66893;44.316;0.092;2023-04-03T12:40:58;21.02;42.56
76785;SHT30;66893;44.316;0.092;2023-04-03T12:46:19;21.08;42.41
76785;SHT30;66893;44.316;0.092;2023-04-03T12:49:42;21.10;42.34
76785;SHT30;66893;44.316;0.092;2023-04-03T12:52:04;21.13;42.03
76785;SHT30;66893;44.316;0.092;2023-04-03T12:54:38;21.13;41.90
76785;SHT30;66893;44.316;0.092;2023-04-03T12:57:19;21.15;41.84
76785;SHT30;66893;44.316;0.092;2023-04-03T12:59:45;21.22;41.85
76785;SHT30;66893;44.316;0.092;2023-04-03T13:02:25;21.26;41.96
76785;SHT30;66893;44.316;0.092;2023-04-03T13:04:53;21.23;41.62
76785;SHT30;66893;44.316;0.092;2023-04-03T13:07:22;21.27;41.75
76785;SHT30;66893;44.316;0.092;2023-04-03T13:09:58;21.37;41.81
76785;SHT30;66893;44.316;0.092;2023-04-03T13:12:24;21.51;41.76
76785;SHT30;66893;44.316;0.092;2023-04-03T13:14:59;21.67;41.65
76785;SHT30;66893;44.316;0.092;2023-04-03T13:17:27;21.78;41.49
76785;SHT30;66893;44.316;0.092;2023-04-03T13:19:53;21.81;41.12
76785;SHT30;66893;44.316;0.092;2023-04-03T13:22:30;21.80;41.03
76785;SHT30;66893;44.316;0.092;2023-04-03T13:24:58;21.82;41.06
76785;SHT30;66893;44.316;0.092;2023-04-03T13:27:25;21.85;41.24
76785;SHT30;66893;44.316;0.092;2023-04-03T13:29:57;21.91;40.92
76785;SHT30;66893;44.316;0.092;2023-04-03T13:32:25;21.98;41.05
76785;SHT30;66893;44.316;0.092;2023-04-03T13:34:52;22.09;41.29
76785;SHT30;66893;44.316;0.092;2023-04-03T13:40:10;22.12;41.15
76785;SHT30;66893;44.316;0.092;2023-04-03T13:42:39;22.15;40.97
76785;SHT30;66893;44.316;0.092;2023-04-03T13:45:26;22.20;41.03
76785;SHT30;66893;44.316;0.092;2023-04-03T13:48:08;22.29;40.80
76785;SHT30;66893;44.316;0.092;2023-04-03T13:51:15;22.39;40.66
76785;SHT30;66893;44.316;0.092;2023-04-03T13:54:10;22.47;40.65
76785;SHT30;66893;44.316;0.092;2023-04-03T13:56:39;22.46;40.55
76785;SHT30;66893;44.316;0.092;2023-04-03T14:04:26;22.29;40.19
76785;SHT30;66893;44.316;0.092;2023-04-03T14:06:53;22.30;40.28
76785;SHT30;66893;44.316;0.092;2023-04-03T14:09:20;22.42;40.19
76785;SHT30;66893;44.316;0.092;2023-04-03T14:11:49;22.57;40.21
76785;SHT30;66893;44.316;0.092;2023-04-03T14:14:19;22.72;40.37
76785;SHT30;66893;44.316;0.092;2023-04-03T14:16:50;22.87;39.82
76785;SHT30;66893;44.316;0.092;2023-04-03T14:19:24;23.01;39.99
76785;SHT30;66893;44.316;0.092;2023-04-03T14:21:52;23.16;39.71
76785;SHT30;66893;44.316;0.092;2023-04-03T14:24:19;23.25;39.49
76785;SHT30;66893;44.316;0.092;2023-04-03T14:26:45;23.30;39.56
76785;SHT30;66893;44.316;0.092;2023-04-03T14:29:12;23.43;39.48
76785;SHT30;66893;44.316;0.092;2023-04-03T14:31:39;23.47;39.67
76785;SHT30;66893;44.316;0.092;2023-04-03T14:34:05;23.52;39.19
76785;SHT30;66893;44.316;0.092;2023-04-03T14:36:33;23.63;39.41
76785;SHT30;66893;44.316;0.092;2023-04-03T14:38:59;24.43;39.26
76785;SHT30;66893;44.316;0.092;2023-04-03T14:41:26;25.89;37.80
76785;SHT30;66893;44.316;0.092;2023-04-03T14:43:53;27.30;36.14
76785;SHT30;66893;44.316;0.092;2023-04-03T14:46:42;28.61;34.89
76785;SHT30;66893;44.316;0.092;2023-04-03T14:49:22;28.99;34.17
76785;SHT30;66893;44.316;0.092;2023-04-03T14:51:49;28.40;34.41
76785;SHT30;66893;44.316;0.092;2023-04-03T14:54:18;27.63;34.58
76785;SHT30;66893;44.316;0.092;2023-04-03T14:56:47;26.94;35.08
76785;SHT30;66893;44.316;0.092;2023-04-03T14:59:13;26.46;35.59
76785;SHT30;66893;44.316;0.092;2023-04-03T15:01:39;26.41;35.57
76785;SHT30;66893;44.316;0.092;2023-04-03T15:04:16;26.57;35.52
76785;SHT30;66893;44.316;0.092;2023-04-03T15:06:42;26.56;35.26
76785;SHT30;66893;44.316;0.092;2023-04-03T15:09:27;26.35;35.33
76785;SHT30;66893;44.316;0.092;2023-04-03T15:11:54;26.32;35.07
76785;SHT30;66893;44.316;0.092;2023-04-03T15:14:20;25.97;35.32
76785;SHT30;66893;44.316;0.092;2023-04-03T15:16:45;25.58;35.60
76785;SHT30;66893;44.316;0.092;2023-04-03T15:19:11;25.19;35.72
76785;SHT30;66893;44.316;0.092;2023-04-03T15:21:37;24.88;35.95
76785;SHT30;66893;44.316;0.092;2023-04-03T15:24:04;24.83;35.95
76785;SHT30;66893;44.316;0.092;2023-04-03T15:26:29;24.67;35.84
76785;SHT30;66893;44.316;0.092;2023-04-03T15:28:55;24.42;35.87
76785;SHT30;66893;44.316;0.092;2023-04-03T15:31:21;24.12;36.27
76785;SHT30;66893;44.316;0.092;2023-04-03T15:33:47;23.93;36.37
76785;SHT30;66893;44.316;0.092;2023-04-03T15:36:12;24.36;36.28
76785;SHT30;66893;44.316;0.092;2023-04-03T15:38:37;25.94;35.52
76785;SHT30;66893;44.316;0.092;2023-04-03T15:41:04;27.65;34.18
76785;SHT30;66893;44.316;0.092;2023-04-03T15:43:30;29.24;32.61
76785;SHT30;66893;44.316;0.092;2023-04-03T15:45:58;30.61;31.35
76785;SHT30;66893;44.316;0.092;2023-04-03T15:48:24;30.85;30.75
76785;SHT30;66893;44.316;0.092;2023-04-03T15:50:50;31.41;30.46
76785;SHT30;66893;44.316;0.092;2023-04-03T15:53:16;31.94;29.96
76785;SHT30;66893;44.316;0.092;2023-04-03T15:55:41;32.37;29.57
76785;SHT30;66893;44.316;0.092;2023-04-03T15:58:07;31.96;29.63
76785;SHT30;66893;44.316;0.092;2023-04-03T16:00:32;30.89;30.25
76785;SHT30;66893;44.316;0.092;2023-04-03T16:03:07;29.85;30.97
76785;SHT30;66893;44.316;0.092;2023-04-03T16:05:35;28.96;31.57
76785;SHT30;66893;44.316;0.092;2023-04-03T16:08:01;28.20;31.93
76785;SHT30;66893;44.316;0.092;2023-04-03T16:10:27;27.54;32.48
76785;SHT30;66893;44.316;0.092;2023-04-03T16:12:53;26.94;32.79
76785;SHT30;66893;44.316;0.092;2023-04-03T16:15:18;26.65;33.01
76785;SHT30;66893;44.316;0.092;2023-04-03T16:17:44;26.66;33.64
76785;SHT30;66893;44.316;0.092;2023-04-03T16:20:11;26.62;33.55
76785;SHT30;66893;44.316;0.092;2023-04-03T16:22:38;26.53;33.64
76785;SHT30;66893;44.316;0.092;2023-04-03T16:25:06;26.51;33.89
76785;SHT30;66893;44.316;0.092;2023-04-03T16:27:32;26.45;33.69
76785;SHT30;66893;44.316;0.092;2023-04-03T16:29:57;26.18;33.90
76785;SHT30;66893;44.316;0.092;2023-04-03T16:32:26;25.81;34.03
76785;SHT30;66893;44.316;0.092;2023-04-03T16:34:53;25.47;34.07
76785;SHT30;66893;44.316;0.092;2023-04-03T16:37:21;25.12;34.43
76785;SHT30;66893;44.316;0.092;2023-04-03T16:39:46;24.88;34.49
76785;SHT30;66893;44.316;0.092;2023-04-03T16:42:12;24.62;34.68
76785;SHT30;66893;44.316;0.092;2023-04-03T16:44:37;24.91;34.73
76785;SHT30;66893;44.316;0.092;2023-04-03T16:47:05;26.04;34.24
76785;SHT30;66893;44.316;0.092;2023-04-03T16:49:30;27.27;33.25
76785;SHT30;66893;44.316;0.092;2023-04-03T16:51:59;28.30;32.41
76785;SHT30;66893;44.316;0.092;2023-04-03T16:54:25;28.38;32.05
76785;SHT30;66893;44.316;0.092;2023-04-03T16:56:51;28.01;32.10
76785;SHT30;66893;44.316;0.092;2023-04-03T16:59:16;27.55;32.42
76785;SHT30;66893;44.316;0.092;2023-04-03T17:01:42;27.01;32.73
76785;SHT30;66893;44.316;0.092;2023-04-03T17:04:08;26.56;32.91
76785;SHT30;66893;44.316;0.092;2023-04-03T17:06:34;26.91;33.00
76785;SHT30;66893;44.316;0.092;2023-04-03T17:08:59;27.37;32.70
76785;SHT30;66893;44.316;0.092;2023-04-03T17:11:26;27.23;32.66
76785;SHT30;66893;44.316;0.092;2023-04-03T17:13:51;26.83;32.92
76785;SHT30;66893;44.316;0.092;2023-04-03T17:16:17;26.28;33.08
76785;SHT30;66893;44.316;0.092;2023-04-03T17:18:43;25.84;33.34